createdAt,value
2018-09-13T00:01:13.168Z,3.40
2018-09-13T00:03:41.502Z,3.30
2018-09-13T00:06:09.826Z,2.93
2018-09-13T00:08:38.207Z,2.50
2018-09-13T00:11:06.776Z,4.23
2018-09-13T00:13:35.113Z,3.77
2018-09-13T00:16:04.475Z,3.17
2018-09-13T00:18:32.808Z,3.57
2018-09-13T00:21:01.200Z,3.30
2018-09-13T00:23:29.708Z,3.97
2018-09-13T00:25:58.040Z,3.40
2018-09-13T00:28:26.369Z,4.03
2018-09-13T00:30:54.712Z,4.43
2018-09-13T00:33:23.031Z,4.40
2018-09-13T00:35:51.362Z,3.73
2018-09-13T00:38:19.691Z,5.00
2018-09-13T00:40:48.092Z,4.60
2018-09-13T00:43:16.428Z,5.03
2018-09-13T00:45:44.797Z,3.83
2018-09-13T00:48:13.134Z,3.67
2018-09-13T00:50:41.488Z,3.87
2018-09-13T00:53:10.084Z,3.17
2018-09-13T00:55:38.514Z,3.97
2018-09-13T00:58:06.894Z,3.67
2018-09-13T01:00:35.373Z,3.30
2018-09-13T01:03:03.720Z,4.10
2018-09-13T01:05:32.093Z,4.00
2018-09-13T01:08:01.565Z,3.57
2018-09-13T01:10:29.964Z,3.40
2018-09-13T01:12:58.304Z,4.30
2018-09-13T01:15:26.671Z,4.90
2018-09-13T01:17:55.040Z,5.30
2018-09-13T01:20:23.384Z,5.47
2018-09-13T01:22:51.833Z,4.77
2018-09-13T01:25:20.184Z,6.50
2018-09-13T01:27:48.612Z,5.53
2018-09-13T01:30:17.192Z,4.07
2018-09-13T01:32:45.604Z,4.87
2018-09-13T01:35:13.948Z,3.90
2018-09-13T01:37:43.332Z,3.50
2018-09-13T01:40:11.689Z,4.27
2018-09-13T01:42:40.016Z,4.47
2018-09-13T01:45:08.385Z,3.47
2018-09-13T01:47:36.716Z,4.27
2018-09-13T01:50:05.121Z,3.70
2018-09-13T01:52:33.736Z,4.90
2018-09-13T01:55:02.092Z,3.80
2018-09-13T01:57:30.633Z,3.07
2018-09-13T01:59:58.992Z,4.20
2018-09-13T02:02:27.392Z,5.10
2018-09-13T02:04:55.756Z,4.37
2018-09-13T02:07:24.104Z,3.20
2018-09-13T02:09:52.425Z,4.40
2018-09-13T02:12:20.741Z,3.80
2018-09-13T02:14:49.084Z,3.90
2018-09-13T02:17:18.465Z,4.30
2018-09-13T02:19:46.771Z,3.40
2018-09-13T02:22:15.109Z,4.50
2018-09-13T02:24:43.437Z,4.07
2018-09-13T02:27:11.756Z,3.97
2018-09-13T02:29:40.099Z,3.40
2018-09-13T02:32:08.412Z,4.37
2018-09-13T02:34:36.733Z,3.37
2018-09-13T02:37:06.074Z,4.23
2018-09-13T02:39:34.392Z,3.80
2018-09-13T02:42:02.746Z,3.13
2018-09-13T02:44:31.089Z,5.00
2018-09-13T02:46:59.396Z,4.60
2018-09-13T02:49:27.773Z,4.20
2018-09-13T02:51:56.124Z,5.50
2018-09-13T02:54:24.508Z,4.30
2018-09-13T02:56:52.816Z,4.03
2018-09-13T02:59:21.229Z,4.00
2018-09-13T03:01:49.540Z,4.37
2018-09-13T03:04:17.844Z,5.37
2018-09-13T03:06:46.356Z,5.27
2018-09-13T03:09:14.672Z,3.93
2018-09-13T03:11:43.956Z,4.00
2018-09-13T03:14:12.803Z,3.90
2018-09-13T03:16:41.505Z,5.13
2018-09-13T03:19:09.871Z,4.07
2018-09-13T03:21:38.210Z,4.70
2018-09-13T03:24:06.538Z,4.80
2018-09-13T03:26:34.889Z,3.93
2018-09-13T03:29:03.265Z,5.93
2018-09-13T03:31:31.617Z,4.27
2018-09-13T03:33:59.969Z,4.60
2018-09-13T03:36:28.300Z,4.37
2018-09-13T03:38:56.616Z,5.00
2018-09-13T03:41:26.001Z,4.60
2018-09-13T03:43:54.321Z,4.60
2018-09-13T03:46:22.641Z,4.50
2018-09-13T03:48:50.953Z,4.87
2018-09-13T03:51:19.273Z,4.30
2018-09-13T03:53:47.588Z,4.83
2018-09-13T03:56:15.924Z,4.93
2018-09-13T03:58:44.292Z,4.80
2018-09-13T04:01:12.884Z,5.40
2018-09-13T04:03:41.244Z,5.90
2018-09-13T04:06:09.612Z,5.73
2018-09-13T04:08:37.986Z,4.60
2018-09-13T04:11:06.662Z,4.87
2018-09-13T04:13:35.017Z,5.50
2018-09-13T04:16:03.383Z,5.20
2018-09-13T04:18:31.713Z,4.93
2018-09-13T04:21:00.024Z,5.03
2018-09-13T04:23:28.385Z,5.43
2018-09-13T04:25:56.704Z,4.70
2018-09-13T04:28:25.009Z,5.50
2018-09-13T04:30:53.333Z,4.63
2018-09-13T04:33:23.668Z,4.57
2018-09-13T04:35:52.450Z,3.97
2018-09-13T04:38:20.640Z,5.53
2018-09-13T04:40:48.948Z,5.50
2018-09-13T04:43:17.312Z,4.37
2018-09-13T04:45:45.696Z,5.10
2018-09-13T04:48:14.102Z,5.70
2018-09-13T04:50:42.420Z,4.53
2018-09-13T04:53:10.816Z,5.73
2018-09-13T04:55:39.127Z,4.47
2018-09-13T04:58:07.469Z,4.70
2018-09-13T05:00:35.788Z,5.20
2018-09-13T05:03:04.116Z,5.27
2018-09-13T05:05:32.429Z,4.80
2018-09-13T05:08:00.768Z,4.17
2018-09-13T05:10:29.084Z,4.10
2018-09-13T05:12:57.526Z,4.20
2018-09-13T05:15:25.752Z,4.20
2018-09-13T05:17:54.081Z,5.00
2018-09-13T05:20:22.420Z,4.93
2018-09-13T05:22:50.740Z,3.67
2018-09-13T05:25:19.116Z,4.27
2018-09-13T05:27:48.524Z,6.83
2018-09-13T05:30:16.880Z,7.10
2018-09-13T05:32:45.719Z,4.67
2018-09-13T05:35:14.264Z,6.62
2018-09-13T05:37:42.640Z,5.77
2018-09-13T05:40:10.977Z,8.23
2018-09-13T05:42:39.309Z,4.37
2018-09-13T05:45:07.633Z,4.27
2018-09-13T05:47:35.964Z,3.77
2018-09-13T05:50:04.340Z,3.90
2018-09-13T05:52:32.676Z,4.53
2018-09-13T05:55:01.000Z,3.30
2018-09-13T05:57:29.615Z,5.60
2018-09-13T05:59:57.924Z,4.60
2018-09-13T06:02:26.277Z,4.60
2018-09-13T06:04:54.601Z,4.10
2018-09-13T06:07:22.940Z,4.40
2018-09-13T06:09:51.320Z,4.57
2018-09-13T06:12:19.656Z,5.37
2018-09-13T06:14:48.029Z,4.80
2018-09-13T06:17:16.412Z,3.67
2018-09-13T06:19:44.845Z,4.37
2018-09-13T06:22:13.247Z,4.40
2018-09-13T06:24:41.588Z,4.50
2018-09-13T06:27:11.033Z,3.50
2018-09-13T06:29:39.490Z,5.03
2018-09-13T06:32:07.761Z,3.73
2018-09-13T06:34:36.084Z,3.70
2018-09-13T06:37:04.444Z,3.00
2018-09-13T06:39:32.766Z,4.73
2018-09-13T06:42:01.216Z,3.87
2018-09-13T06:44:29.540Z,3.57
2018-09-13T06:46:57.878Z,3.57
2018-09-13T06:49:26.200Z,4.70
2018-09-13T06:51:54.548Z,3.47
2018-09-13T06:54:22.861Z,3.47
2018-09-13T06:56:51.193Z,3.53
2018-09-13T06:59:19.968Z,3.70
2018-09-13T07:01:48.304Z,2.90
2018-09-13T07:04:16.661Z,3.67
2018-09-13T07:06:44.980Z,3.43
2018-09-13T07:09:14.881Z,2.70
2018-09-13T07:11:44.188Z,3.80
2018-09-13T07:14:12.542Z,3.33
2018-09-13T07:16:44.063Z,2.80
2018-09-13T07:19:12.686Z,3.13
2018-09-13T07:21:41.315Z,2.10
2018-09-13T07:24:09.646Z,2.40
2018-09-13T07:26:38.212Z,2.10
2018-09-13T07:29:06.549Z,2.17
2018-09-13T07:31:34.853Z,2.80
2018-09-13T07:34:03.368Z,3.00
2018-09-13T07:36:31.688Z,2.67
2018-09-13T07:39:00.925Z,2.33
2018-09-13T07:41:29.292Z,3.30
2018-09-13T07:43:57.612Z,2.80
2018-09-13T07:46:25.997Z,3.00
2018-09-13T07:48:54.330Z,3.40
2018-09-13T07:51:22.661Z,2.73
2018-09-13T07:53:50.988Z,2.23
2018-09-13T07:56:20.355Z,2.80
2018-09-13T07:58:48.840Z,3.53
2018-09-13T08:01:17.191Z,1.87
2018-09-13T08:03:45.516Z,2.87
2018-09-13T08:06:13.840Z,3.63
2018-09-13T08:08:42.148Z,2.80
2018-09-13T08:11:10.460Z,2.67
2018-09-13T08:13:38.779Z,2.80
2018-09-13T08:16:07.103Z,1.87
2018-09-13T08:18:35.447Z,2.33
2018-09-13T08:21:03.872Z,2.13
2018-09-13T08:23:32.200Z,2.40
2018-09-13T08:26:00.637Z,2.23
2018-09-13T08:28:29.012Z,2.10
2018-09-13T08:30:58.336Z,2.50
2018-09-13T08:33:26.766Z,2.00
2018-09-13T08:35:56.003Z,1.80
2018-09-13T08:38:25.505Z,1.93
2018-09-13T08:40:53.927Z,2.17
2018-09-13T08:43:22.244Z,1.67
2018-09-13T08:45:50.791Z,1.73
2018-09-13T08:48:19.116Z,2.07
2018-09-13T08:50:47.510Z,2.00
2018-09-13T08:53:15.836Z,1.70
2018-09-13T08:55:44.144Z,1.70
2018-09-13T08:58:12.459Z,1.93
2018-09-13T09:00:40.826Z,2.50
2018-09-13T09:03:09.119Z,2.03
2018-09-13T09:05:37.560Z,1.80
2018-09-13T09:08:05.925Z,1.80
2018-09-13T09:10:34.247Z,1.87
2018-09-13T09:13:02.572Z,1.90
2018-09-13T09:15:31.951Z,1.50
2018-09-13T09:18:00.306Z,1.60
2018-09-13T09:20:28.869Z,1.80
2018-09-13T09:22:57.247Z,1.53
2018-09-13T09:25:25.614Z,1.97
2018-09-13T09:27:53.951Z,2.33
2018-09-13T09:30:22.333Z,2.37
2018-09-13T09:32:51.872Z,1.80
2018-09-13T09:35:20.209Z,1.40
2018-09-13T09:37:48.588Z,2.40
2018-09-13T09:40:16.925Z,1.63
2018-09-13T09:42:46.348Z,2.00
2018-09-13T09:45:15.874Z,2.23
2018-09-13T09:47:45.227Z,1.33
2018-09-13T09:50:13.654Z,1.80
2018-09-13T09:52:42.057Z,1.77
2018-09-13T09:55:10.390Z,1.70
2018-09-13T09:57:40.572Z,1.30
2018-09-13T10:00:08.968Z,1.73
2018-09-13T10:02:37.390Z,1.60
2018-09-13T10:05:05.748Z,2.07
2018-09-13T10:07:34.100Z,1.63
2018-09-13T10:10:02.476Z,1.60
2018-09-13T10:12:30.832Z,1.73
2018-09-13T10:15:04.393Z,1.80
2018-09-13T10:17:38.128Z,1.37
2018-09-13T10:20:11.682Z,1.43
2018-09-13T10:22:45.469Z,1.60
2018-09-13T10:30:26.201Z,1.70
2018-09-13T10:32:59.905Z,2.70
2018-09-13T10:35:33.653Z,2.20
2018-09-13T10:38:07.412Z,2.10
2018-09-13T10:40:41.245Z,2.47
2018-09-13T10:43:14.957Z,3.27
2018-09-13T10:45:48.698Z,2.23
2018-09-13T10:48:22.081Z,1.60
2018-09-13T10:50:55.609Z,1.87
2018-09-13T10:53:29.328Z,2.20
2018-09-13T10:55:57.708Z,1.90
2018-09-13T10:58:26.064Z,2.33
2018-09-13T11:00:54.447Z,2.07
2018-09-13T11:03:22.859Z,2.20
2018-09-13T11:05:51.204Z,1.70
2018-09-13T11:08:19.533Z,2.10
2018-09-13T11:10:48.203Z,2.20
2018-09-13T11:13:25.661Z,1.63
2018-09-13T11:15:54.021Z,2.20
2018-09-13T11:18:22.370Z,2.43
2018-09-13T11:20:51.760Z,2.33
2018-09-13T11:23:20.289Z,2.17
2018-09-13T11:25:48.692Z,2.20
2018-09-13T11:28:17.025Z,2.80
2018-09-13T11:30:47.942Z,1.80
2018-09-13T11:33:16.276Z,2.03
2018-09-13T11:35:44.706Z,2.13
2018-09-13T11:38:13.068Z,2.17
2018-09-13T11:40:41.640Z,2.07
2018-09-13T11:43:09.736Z,1.70
2018-09-13T11:45:38.280Z,2.47
2018-09-13T11:48:06.681Z,1.70
2018-09-13T11:50:35.097Z,2.20
2018-09-13T11:53:03.513Z,2.10
2018-09-13T11:55:31.856Z,2.37
2018-09-13T11:58:01.356Z,2.10
2018-09-13T12:00:29.965Z,1.87
2018-09-13T12:02:58.345Z,2.27
2018-09-13T12:05:26.788Z,2.50
2018-09-13T12:07:55.148Z,1.80
2018-09-13T12:10:23.476Z,2.13
2018-09-13T12:12:52.543Z,1.63
2018-09-13T12:15:21.037Z,2.00
2018-09-13T12:17:49.418Z,2.27
2018-09-13T12:20:18.588Z,2.00
2018-09-13T12:22:46.968Z,1.93
2018-09-13T12:25:15.365Z,1.80
2018-09-13T12:27:43.720Z,2.00
2018-09-13T12:30:13.072Z,1.40
2018-09-13T12:32:41.669Z,1.47
2018-09-13T12:35:09.996Z,2.50
2018-09-13T12:37:39.453Z,1.63
2018-09-13T12:40:08.405Z,1.77
2018-09-13T12:42:36.897Z,2.33
2018-09-13T12:45:05.592Z,1.60
2018-09-13T12:47:33.944Z,2.10
2018-09-13T12:50:02.337Z,1.73
2018-09-13T12:52:30.656Z,1.63
2018-09-13T12:54:58.989Z,2.50
2018-09-13T12:57:27.404Z,1.70
2018-09-13T12:59:55.744Z,1.40
2018-09-13T13:02:24.129Z,1.90
2018-09-13T13:04:52.469Z,1.80
2018-09-13T13:07:20.832Z,2.00
2018-09-13T13:09:50.244Z,1.90
2018-09-13T13:12:18.600Z,2.20
2018-09-13T13:14:47.109Z,1.80
2018-09-13T13:17:15.489Z,2.63
2018-09-13T13:19:43.830Z,1.77
2018-09-13T13:22:12.349Z,1.93
2018-09-13T13:24:40.787Z,2.03
2018-09-13T13:27:09.102Z,1.57
2018-09-13T13:29:37.851Z,1.90
2018-09-13T13:32:06.915Z,2.07
2018-09-13T13:34:36.356Z,2.00
2018-09-13T13:37:05.172Z,1.60
2018-09-13T13:39:33.496Z,2.13
2018-09-13T13:42:01.873Z,2.00
2018-09-13T13:44:30.413Z,2.50
2018-09-13T13:46:58.751Z,1.87
2018-09-13T13:49:29.086Z,1.93
2018-09-13T13:51:58.432Z,2.50
2018-09-13T13:54:26.759Z,1.90
2018-09-13T13:56:55.079Z,2.40
2018-09-13T13:59:23.569Z,2.23
2018-09-13T14:01:52.260Z,1.60
2018-09-13T14:04:20.576Z,2.10
2018-09-13T14:06:48.952Z,1.73
2018-09-13T14:09:17.271Z,1.47
2018-09-13T14:11:45.600Z,2.20
2018-09-13T14:14:13.980Z,1.83
2018-09-13T14:16:42.291Z,2.47
2018-09-13T14:19:10.605Z,2.43
2018-09-13T14:21:38.962Z,2.33
2018-09-13T14:24:07.340Z,2.37
2018-09-13T14:26:35.656Z,2.00
2018-09-13T14:29:04.007Z,3.40
2018-09-13T14:31:32.360Z,1.73
2018-09-13T14:34:00.673Z,2.57
2018-09-13T14:36:29.036Z,2.03
2018-09-13T14:38:57.372Z,1.90
2018-09-13T14:41:25.710Z,2.30
2018-09-13T14:43:54.067Z,2.20
2018-09-13T14:46:22.415Z,2.70
2018-09-13T14:48:50.741Z,1.80
2018-09-13T14:51:19.708Z,1.83
2018-09-13T14:53:48.028Z,1.60
2018-09-13T14:56:16.390Z,1.63
2018-09-13T14:58:45.032Z,2.30
2018-09-13T15:01:13.345Z,2.20
2018-09-13T15:03:41.664Z,2.60
2018-09-13T15:06:10.096Z,1.80
2018-09-13T15:08:38.431Z,1.87
2018-09-13T15:11:06.769Z,1.50
2018-09-13T15:13:35.117Z,2.03
2018-09-13T15:16:03.449Z,1.70
2018-09-13T15:18:31.764Z,1.30
2018-09-13T15:21:00.272Z,1.77
2018-09-13T15:23:28.701Z,2.40
2018-09-13T15:25:57.116Z,1.97
2018-09-13T15:28:25.456Z,1.83
2018-09-13T15:30:53.937Z,2.10
2018-09-13T15:33:22.424Z,1.70
2018-09-13T15:35:50.756Z,1.80
2018-09-13T15:38:19.192Z,2.10
2018-09-13T15:40:47.532Z,2.00
2018-09-13T15:43:15.857Z,1.47
2018-09-13T15:45:44.193Z,1.90
2018-09-13T15:48:12.540Z,1.53
2018-09-13T15:50:40.857Z,1.30
2018-09-13T15:53:09.192Z,1.60
2018-09-13T15:55:37.508Z,1.30
2018-09-13T15:58:07.136Z,2.67
2018-09-13T16:00:35.453Z,2.27
2018-09-13T16:03:03.789Z,2.10
2018-09-13T16:05:32.139Z,1.67
2018-09-13T16:08:00.514Z,2.20
2018-09-13T16:10:28.859Z,1.70
2018-09-13T16:12:58.352Z,1.67
2018-09-13T16:15:26.604Z,1.67
2018-09-13T16:17:54.956Z,1.10
2018-09-13T16:20:26.228Z,1.67
2018-09-13T16:22:52.643Z,1.67
2018-09-13T16:25:20.979Z,1.73
2018-09-13T16:27:49.292Z,1.57
2018-09-13T16:30:17.613Z,2.10
2018-09-13T16:32:45.975Z,1.77
2018-09-13T16:35:14.454Z,2.20
2018-09-13T16:37:51.266Z,1.60
2018-09-13T16:40:24.765Z,1.60
2018-09-13T16:42:59.232Z,1.50
2018-09-13T16:45:28.632Z,1.70
2018-09-13T16:48:01.400Z,1.43
2018-09-13T16:50:29.793Z,1.97
2018-09-13T16:52:58.168Z,1.60
2018-09-13T16:55:26.473Z,2.03
2018-09-13T16:57:54.816Z,2.00
2018-09-13T17:00:24.475Z,1.90
2018-09-13T17:02:53.000Z,1.23
2018-09-13T17:05:21.388Z,1.37
2018-09-13T17:07:49.712Z,1.40
2018-09-13T17:10:18.051Z,1.73
2018-09-13T17:12:46.781Z,1.67
2018-09-13T17:15:15.141Z,1.40
2018-09-13T17:17:43.533Z,1.83
2018-09-13T17:20:11.978Z,1.30
2018-09-13T17:22:40.294Z,1.53
2018-09-13T17:25:08.657Z,1.20
2018-09-13T17:27:37.001Z,1.67
2018-09-13T17:30:05.907Z,1.27
2018-09-13T17:32:34.258Z,1.50
2018-09-13T17:35:02.572Z,1.63
2018-09-13T17:37:30.907Z,1.70
2018-09-13T17:39:59.248Z,1.87
2018-09-13T17:42:27.556Z,1.30
2018-09-13T17:44:56.059Z,1.60
2018-09-13T17:47:24.680Z,1.40
2018-09-13T17:49:54.346Z,1.70
2018-09-13T17:52:22.669Z,2.13
2018-09-13T17:54:51.092Z,2.00
2018-09-13T17:57:20.453Z,2.00
2018-09-13T17:59:48.816Z,2.20
2018-09-13T18:02:18.338Z,2.30
2018-09-13T18:04:46.665Z,2.17
2018-09-13T18:07:15.001Z,1.87
2018-09-13T18:09:43.366Z,1.90
2018-09-13T18:12:11.702Z,1.47
2018-09-13T18:14:40.041Z,2.00
2018-09-13T18:17:08.402Z,2.00
2018-09-13T18:19:36.745Z,2.33
2018-09-13T18:22:05.100Z,1.80
2018-09-13T18:24:33.473Z,1.67
2018-09-13T18:27:01.934Z,2.27
2018-09-13T18:29:30.261Z,2.10
2018-09-13T18:31:59.815Z,2.60
2018-09-13T18:34:28.149Z,2.13
2018-09-13T18:36:56.481Z,2.07
2018-09-13T18:39:24.808Z,2.17
2018-09-13T18:41:53.137Z,2.17
2018-09-13T18:44:21.498Z,2.17
2018-09-13T18:46:49.837Z,1.87
2018-09-13T18:49:18.178Z,2.20
2018-09-13T18:51:46.533Z,2.03
2018-09-13T18:54:14.893Z,2.40
2018-09-13T18:56:43.213Z,2.50
2018-09-13T18:59:11.761Z,2.83
2018-09-13T19:01:40.285Z,2.57
2018-09-13T19:04:08.646Z,3.17
2018-09-13T19:06:37.192Z,2.40
2018-09-13T19:09:08.124Z,2.07
2018-09-13T19:11:36.574Z,2.70
2018-09-13T19:14:05.139Z,2.30
2018-09-13T19:16:33.460Z,2.30
2018-09-13T19:19:01.785Z,2.23
2018-09-13T19:21:30.118Z,3.10
2018-09-13T19:23:58.454Z,2.77
2018-09-13T19:26:26.792Z,2.30
2018-09-13T19:28:55.109Z,2.50
2018-09-13T19:31:23.436Z,2.83
2018-09-13T19:33:51.744Z,2.33
2018-09-13T19:36:20.068Z,3.10
2018-09-13T19:38:49.416Z,3.37
2018-09-13T19:41:17.848Z,3.73
2018-09-13T19:43:46.224Z,2.83
2018-09-13T19:46:14.566Z,3.70
2018-09-13T19:48:42.886Z,4.00
2018-09-13T19:51:11.259Z,2.73
2018-09-13T19:53:39.580Z,3.30
2018-09-13T19:56:07.956Z,4.17
2018-09-13T19:58:37.361Z,3.30
2018-09-13T20:01:05.724Z,2.57
2018-09-13T20:03:35.155Z,3.30
2018-09-13T20:06:03.584Z,4.20
2018-09-13T20:08:32.011Z,3.07
2018-09-13T20:11:00.369Z,3.13
2018-09-13T20:13:28.693Z,2.87
2018-09-13T20:15:57.040Z,3.80
2018-09-13T20:18:25.413Z,4.33
2018-09-13T20:20:53.748Z,4.43
2018-09-13T20:23:22.065Z,3.93
2018-09-13T20:25:50.409Z,3.93
2018-09-13T20:28:18.773Z,3.30
2018-09-13T20:30:47.104Z,4.40
2018-09-13T20:33:15.648Z,3.47
2018-09-13T20:35:43.991Z,3.57
2018-09-13T20:38:12.310Z,3.00
2018-09-13T20:40:40.632Z,3.97
2018-09-13T20:43:08.948Z,3.00
2018-09-13T20:45:38.334Z,4.07
2018-09-13T20:48:06.721Z,4.40
2018-09-13T20:50:35.164Z,3.57
2018-09-13T20:53:03.501Z,3.43
2018-09-13T20:55:31.917Z,3.60
2018-09-13T20:58:00.245Z,4.10
2018-09-13T21:00:28.621Z,3.73
2018-09-13T21:02:56.952Z,4.07
2018-09-13T21:05:25.300Z,4.57
2018-09-13T21:07:53.649Z,3.37
2018-09-13T21:10:22.073Z,3.37
2018-09-13T21:12:50.408Z,3.87
2018-09-13T21:15:19.768Z,3.93
2018-09-13T21:17:48.097Z,4.50
2018-09-13T21:20:17.555Z,4.43
2018-09-13T21:22:45.891Z,3.47
2018-09-13T21:25:14.237Z,3.37
2018-09-13T21:27:42.549Z,4.87
2018-09-13T21:30:10.973Z,3.90
2018-09-13T21:32:39.472Z,3.70
2018-09-13T21:35:07.786Z,3.77
2018-09-13T21:37:36.128Z,3.50
2018-09-13T21:40:04.501Z,3.70
2018-09-13T21:42:32.820Z,3.70
2018-09-13T21:45:01.477Z,4.40
2018-09-13T21:47:29.817Z,3.40
2018-09-13T21:49:58.155Z,3.10
2018-09-13T21:52:26.480Z,3.77
2018-09-13T21:54:54.900Z,3.83
2018-09-13T21:57:23.240Z,3.57
2018-09-13T21:59:51.568Z,3.93
2018-09-13T22:02:19.918Z,3.93
2018-09-13T22:04:48.244Z,4.50
2018-09-13T22:07:16.601Z,4.60
2018-09-13T22:09:44.921Z,4.17
2018-09-13T22:12:13.528Z,4.00
2018-09-13T22:14:42.028Z,5.10
2018-09-13T22:17:10.827Z,4.20
2018-09-13T22:19:39.170Z,4.50
2018-09-13T22:22:07.572Z,4.50
2018-09-13T22:24:35.913Z,4.73
2018-09-13T22:27:04.267Z,5.20
2018-09-13T22:29:32.696Z,4.43
2018-09-13T22:32:01.115Z,5.00
2018-09-13T22:34:29.476Z,5.03
2018-09-13T22:36:58.120Z,4.73
2018-09-13T22:39:26.436Z,4.93
2018-09-13T22:41:54.763Z,5.17
2018-09-13T22:44:23.116Z,4.63
2018-09-13T22:46:51.468Z,5.33
2018-09-13T22:49:19.779Z,5.53
2018-09-13T22:51:48.407Z,5.70
2018-09-13T22:54:16.723Z,4.97
2018-09-13T22:56:45.036Z,4.80
2018-09-13T22:59:13.377Z,5.50
2018-09-13T23:01:41.703Z,4.80
2018-09-13T23:04:10.032Z,4.77
2018-09-13T23:06:39.825Z,3.50
2018-09-13T23:09:09.972Z,5.43
2018-09-13T23:11:38.301Z,4.70
2018-09-13T23:14:06.656Z,5.83
2018-09-13T23:16:34.984Z,5.47
2018-09-13T23:19:03.317Z,4.93
2018-09-13T23:21:31.885Z,5.40
2018-09-13T23:24:00.335Z,5.30
2018-09-13T23:26:28.656Z,6.20
2018-09-13T23:28:57.416Z,5.00
2018-09-13T23:31:25.740Z,4.47
2018-09-13T23:33:54.525Z,4.63
2018-09-13T23:36:23.036Z,4.70
2018-09-13T23:38:51.388Z,5.00
2018-09-13T23:41:19.796Z,5.73
2018-09-13T23:43:48.137Z,5.93
2018-09-13T23:46:17.555Z,5.17
2018-09-13T23:48:46.077Z,5.13
2018-09-13T23:51:14.404Z,4.40
2018-09-13T23:53:42.732Z,5.00
2018-09-13T23:56:11.052Z,4.17
2018-09-13T23:58:39.388Z,6.90
